sensor_id;sensor_type;location;lat;lon;timestamp;pressure;altitude;pressure_sealevel;temperature;humidity
7888;BME280;3989;48.810;9.208;2023-04-06T04:16:39;98985.63;;;-2.35;100.00
7888;BME280;3989;48.810;9.208;2023-04-06T07:52:44;98938.53;;;5.30;62.70
7888;BME280;3989;48.810;9.208;2023-04-06T07:55:12;98919.38;;;5.19;62.14
7888;BME280;3989;48.810;9.208;2023-04-06T08:00:39;98946.78;;;5.83;59.61
7888;BME280;3989;48.810;9.208;2023-04-06T08:03:06;98897.53;;;5.54;58.57
7888;BME280;3989;48.810;9.208;2023-04-06T08:05:33;99088.38;;;6.82;58.56
7888;BME280;3989;48.810;9.208;2023-04-06T08:08:01;99003.34;;;6.39;58.19
7888;BME280;3989;48.810;9.208;2023-04-06T08:10:28;99036.41;;;6.89;57.30
7888;BME280;3989;48.810;9.208;2023-04-06T08:12:55;98827.25;;;5.69;56.68
7888;BME280;3989;48.810;9.208;2023-04-06T08:15:22;99089.78;;;7.31;56.68
7888;BME280;3989;48.810;9.208;2023-04-06T08:17:48;99089.56;;;7.42;55.53
7888;BME280;3989;48.810;9.208;2023-04-06T08:20:15;98967.81;;;6.76;55.76
7888;BME280;3989;48.810;9.208;2023-04-06T08:22:42;99037.97;;;7.27;55.27
7888;BME280;3989;48.810;9.208;2023-04-06T08:25:10;99031.59;;;7.37;55.10
7888;BME280;3989;48.810;9.208;2023-04-06T08:27:37;99069.66;;;7.64;54.18
7888;BME280;3989;48.810;9.208;2023-04-06T08:30:04;98922.63;;;6.86;53.52
7888;BME280;3989;48.810;9.208;2023-04-06T08:32:31;98835.81;;;6.53;54.00
7888;BME280;3989;48.810;9.208;2023-04-06T08:34:58;99048.19;;;8.01;53.08
7888;BME280;3989;48.810;9.208;2023-04-06T08:37:26;98979.94;;;7.75;51.98
7888;BME280;3989;48.810;9.208;2023-04-06T08:39:53;99086.22;;;8.44;52.21
7888;BME280;3989;48.810;9.208;2023-04-06T08:42:21;98932.59;;;7.71;52.09
7888;BME280;3989;48.810;9.208;2023-04-06T08:44:51;98795.91;;;6.98;51.75
7888;BME280;3989;48.810;9.208;2023-04-06T08:47:18;99069.97;;;8.89;51.24
7888;BME280;3989;48.810;9.208;2023-04-06T08:49:45;99071.78;;;8.89;50.44
7888;BME280;3989;48.810;9.208;2023-04-06T08:52:13;99020.81;;;8.68;49.89
7888;BME280;3989;48.810;9.208;2023-04-06T08:54:41;99042.50;;;8.89;50.23
7888;BME280;3989;48.810;9.208;2023-04-06T08:57:08;99018.38;;;8.82;49.30
7888;BME280;3989;48.810;9.208;2023-04-06T08:59:38;99078.06;;;9.30;49.81
7888;BME280;3989;48.810;9.208;2023-04-06T09:02:06;99021.09;;;9.07;48.70
7888;BME280;3989;48.810;9.208;2023-04-06T09:04:38;98932.66;;;8.63;48.03
7888;BME280;3989;48.810;9.208;2023-04-06T09:07:05;99057.13;;;9.59;46.80
7888;BME280;3989;48.810;9.208;2023-04-06T09:09:31;98783.22;;;7.85;46.02
7888;BME280;3989;48.810;9.208;2023-04-06T09:11:58;98991.19;;;9.21;47.12
7888;BME280;3989;48.810;9.208;2023-04-06T09:14:34;99017.00;;;9.53;46.18
7888;BME280;3989;48.810;9.208;2023-04-06T09:17:04;99049.16;;;9.75;44.79
7888;BME280;3989;48.810;9.208;2023-04-06T09:19:31;98934.41;;;8.96;43.85
7888;BME280;3989;48.810;9.208;2023-04-06T09:22:02;99051.47;;;9.94;44.26
7888;BME280;3989;48.810;9.208;2023-04-06T09:24:39;98985.03;;;9.69;43.33
7888;BME280;3989;48.810;9.208;2023-04-06T09:27:06;98978.50;;;9.79;42.93
7888;BME280;3989;48.810;9.208;2023-04-06T09:29:33;99050.56;;;10.34;41.23
7888;BME280;3989;48.810;9.208;2023-04-06T09:32:04;98987.97;;;9.98;40.04
7888;BME280;3989;48.810;9.208;2023-04-06T09:34:31;99014.28;;;10.17;40.93
7888;BME280;3989;48.810;9.208;2023-04-06T09:36:58;99018.25;;;10.29;40.91
7888;BME280;3989;48.810;9.208;2023-04-06T09:39:25;99041.66;;;10.66;41.08
7888;BME280;3989;48.810;9.208;2023-04-06T09:41:53;99045.25;;;10.81;40.84
7888;BME280;3989;48.810;9.208;2023-04-06T09:44:21;98946.88;;;10.31;40.13
7888;BME280;3989;48.810;9.208;2023-04-06T09:46:49;98975.09;;;10.57;38.96
7888;BME280;3989;48.810;9.208;2023-04-06T09:49:18;99012.50;;;10.87;37.89
7888;BME280;3989;48.810;9.208;2023-04-06T09:51:46;98946.31;;;10.44;36.73
7888;BME280;3989;48.810;9.208;2023-04-06T09:54:17;99040.38;;;11.16;36.89
7888;BME280;3989;48.810;9.208;2023-04-06T09:56:46;98992.28;;;10.93;37.87
7888;BME280;3989;48.810;9.208;2023-04-06T09:59:18;99038.16;;;11.27;38.34
7888;BME280;3989;48.810;9.208;2023-04-06T10:01:48;99032.69;;;11.21;36.56
7888;BME280;3989;48.810;9.208;2023-04-06T10:04:29;99031.25;;;11.10;36.36
7888;BME280;3989;48.810;9.208;2023-04-06T10:07:00;98991.03;;;10.73;36.11
7888;BME280;3989;48.810;9.208;2023-04-06T10:09:29;99023.94;;;11.04;36.35
7888;BME280;3989;48.810;9.208;2023-04-06T10:12:02;99018.03;;;11.17;36.31
7888;BME280;3989;48.810;9.208;2023-04-06T10:14:30;98954.41;;;10.89;36.21
7888;BME280;3989;48.810;9.208;2023-04-06T10:16:58;98978.91;;;11.01;35.91
7888;BME280;3989;48.810;9.208;2023-04-06T10:19:29;98928.06;;;10.86;36.60
7888;BME280;3989;48.810;9.208;2023-04-06T10:21:59;98993.22;;;11.31;35.04
7888;BME280;3989;48.810;9.208;2023-04-06T10:24:29;98905.97;;;10.70;35.16
7888;BME280;3989;48.810;9.208;2023-04-06T10:27:00;98969.47;;;11.13;35.38
7888;BME280;3989;48.810;9.208;2023-04-06T10:29:27;98884.75;;;10.76;35.76
7888;BME280;3989;48.810;9.208;2023-04-06T10:31:54;98982.47;;;11.39;35.77
7888;BME280;3989;48.810;9.208;2023-04-06T10:34:21;98921.25;;;11.06;35.40
7888;BME280;3989;48.810;9.208;2023-04-06T10:36:49;98988.66;;;11.54;35.32
7888;BME280;3989;48.810;9.208;2023-04-06T10:39:24;98924.41;;;11.33;35.18
7888;BME280;3989;48.810;9.208;2023-04-06T10:41:51;98898.75;;;11.24;34.77
7888;BME280;3989;48.810;9.208;2023-04-06T10:44:20;99011.84;;;11.99;34.62
7888;BME280;3989;48.810;9.208;2023-04-06T10:46:52;98978.56;;;11.87;34.62
7888;BME280;3989;48.810;9.208;2023-04-06T10:49:20;98982.84;;;12.10;34.98
7888;BME280;3989;48.810;9.208;2023-04-06T10:51:53;99005.91;;;12.26;35.05
7888;BME280;3989;48.810;9.208;2023-04-06T10:54:21;99000.44;;;12.34;34.34
7888;BME280;3989;48.810;9.208;2023-04-06T10:56:48;98996.88;;;12.27;34.00
7888;BME280;3989;48.810;9.208;2023-04-06T10:59:18;98795.56;;;11.08;34.01
7888;BME280;3989;48.810;9.208;2023-04-06T11:01:45;98998.81;;;12.33;33.61
7888;BME280;3989;48.810;9.208;2023-04-06T11:04:15;98876.28;;;11.70;33.81
7888;BME280;3989;48.810;9.208;2023-04-06T11:06:46;98949.06;;;12.24;33.18
7888;BME280;3989;48.810;9.208;2023-04-06T11:09:23;99000.50;;;12.70;33.75
7888;BME280;3989;48.810;9.208;2023-04-06T11:11:50;98974.69;;;12.62;33.33
7888;BME280;3989;48.810;9.208;2023-04-06T11:14:17;98994.06;;;12.79;32.75
7888;BME280;3989;48.810;9.208;2023-04-06T11:16:46;98988.25;;;12.76;32.27
7888;BME280;3989;48.810;9.208;2023-04-06T11:19:13;98846.97;;;11.91;32.44
7888;BME280;3989;48.810;9.208;2023-04-06T11:21:42;98922.00;;;12.48;32.88
7888;BME280;3989;48.810;9.208;2023-04-06T11:24:13;98988.28;;;12.97;31.49
7888;BME280;3989;48.810;9.208;2023-04-06T11:26:43;98943.94;;;12.58;31.68
7888;BME280;3989;48.810;9.208;2023-04-06T11:29:11;98824.63;;;11.99;32.19
7888;BME280;3989;48.810;9.208;2023-04-06T11:31:39;98966.53;;;13.06;32.38
7888;BME280;3989;48.810;9.208;2023-04-06T11:34:11;98939.69;;;13.00;31.74
7888;BME280;3989;48.810;9.208;2023-04-06T11:36:40;98909.09;;;12.73;31.76
7888;BME280;3989;48.810;9.208;2023-04-06T11:39:08;98961.81;;;13.23;31.29
7888;BME280;3989;48.810;9.208;2023-04-06T11:41:35;98929.88;;;13.07;31.26
7888;BME280;3989;48.810;9.208;2023-04-06T11:44:03;98954.13;;;13.41;31.01
7888;BME280;3989;48.810;9.208;2023-04-06T11:46:31;98946.72;;;13.22;30.60
7888;BME280;3989;48.810;9.208;2023-04-06T11:48:59;98948.13;;;13.39;30.51
7888;BME280;3989;48.810;9.208;2023-04-06T11:51:26;98794.72;;;12.67;30.97
7888;BME280;3989;48.810;9.208;2023-04-06T11:53:53;98915.75;;;13.62;30.02
7888;BME280;3989;48.810;9.208;2023-04-06T11:56:27;98951.09;;;13.72;30.22
7888;BME280;3989;48.810;9.208;2023-04-06T11:58:55;98943.91;;;13.73;30.18
7888;BME280;3989;48.810;9.208;2023-04-06T12:01:24;98952.84;;;13.86;30.72
7888;BME280;3989;48.810;9.208;2023-04-06T12:03:52;98925.78;;;13.81;30.36
7888;BME280;3989;48.810;9.208;2023-04-06T12:06:18;98939.06;;;13.89;30.13
7888;BME280;3989;48.810;9.208;2023-04-06T12:08:45;98946.84;;;13.56;29.92
7888;BME280;3989;48.810;9.208;2023-04-06T12:11:12;98942.72;;;13.33;30.75
7888;BME280;3989;48.810;9.208;2023-04-06T12:13:39;98921.34;;;13.18;31.13
7888;BME280;3989;48.810;9.208;2023-04-06T12:16:06;98892.13;;;13.23;30.63
7888;BME280;3989;48.810;9.208;2023-04-06T12:18:34;98925.59;;;13.55;30.33
7888;BME280;3989;48.810;9.208;2023-04-06T12:21:00;98930.88;;;13.48;30.73
7888;BME280;3989;48.810;9.208;2023-04-06T12:23:27;98926.13;;;13.23;31.11
7888;BME280;3989;48.810;9.208;2023-04-06T12:25:53;98927.25;;;13.35;31.04
7888;BME280;3989;48.810;9.208;2023-04-06T12:28:20;98900.06;;;13.38;31.08
7888;BME280;3989;48.810;9.208;2023-04-06T12:30:48;98809.28;;;12.79;31.00
7888;BME280;3989;48.810;9.208;2023-04-06T12:33:15;98914.84;;;13.55;30.82
7888;BME280;3989;48.810;9.208;2023-04-06T12:35:43;98920.72;;;13.65;30.70
7888;BME280;3989;48.810;9.208;2023-04-06T12:38:10;98906.72;;;13.70;30.29
7888;BME280;3989;48.810;9.208;2023-04-06T12:40:37;98688.88;;;12.22;30.57
7888;BME280;3989;48.810;9.208;2023-04-06T12:43:04;98917.97;;;13.86;30.23
7888;BME280;3989;48.810;9.208;2023-04-06T12:45:31;98904.09;;;13.76;30.20
7888;BME280;3989;48.810;9.208;2023-04-06T12:47:57;98898.47;;;13.71;30.47
7888;BME280;3989;48.810;9.208;2023-04-06T12:50:24;98835.22;;;13.49;30.87
7888;BME280;3989;48.810;9.208;2023-04-06T12:52:53;98904.38;;;14.29;30.52
7888;BME280;3989;48.810;9.208;2023-04-06T12:55:19;98897.09;;;14.50;30.31
7888;BME280;3989;48.810;9.208;2023-04-06T12:57:47;98890.72;;;14.64;29.92
7888;BME280;3989;48.810;9.208;2023-04-06T13:00:14;98852.66;;;14.48;29.93
7888;BME280;3989;48.810;9.208;2023-04-06T13:02:41;98897.44;;;14.95;29.17
7888;BME280;3989;48.810;9.208;2023-04-06T13:05:12;98894.13;;;15.06;29.35
7888;BME280;3989;48.810;9.208;2023-04-06T13:07:38;98887.56;;;15.28;29.10
7888;BME280;3989;48.810;9.208;2023-04-06T13:10:07;98868.31;;;15.24;28.75
7888;BME280;3989;48.810;9.208;2023-04-06T13:12:34;98875.31;;;15.45;28.83
7888;BME280;3989;48.810;9.208;2023-04-06T13:15:01;98866.03;;;15.67;28.60
7888;BME280;3989;48.810;9.208;2023-04-06T13:17:28;98873.06;;;15.75;27.88
7888;BME280;3989;48.810;9.208;2023-04-06T13:19:55;98861.03;;;15.91;28.38
7888;BME280;3989;48.810;9.208;2023-04-06T13:22:21;98865.56;;;15.97;27.98
7888;BME280;3989;48.810;9.208;2023-04-06T13:24:48;98876.34;;;15.77;28.35
7888;BME280;3989;48.810;9.208;2023-04-06T13:27:16;98870.09;;;15.96;28.64
7888;BME280;3989;48.810;9.208;2023-04-06T13:29:42;98862.19;;;16.21;28.39
7888;BME280;3989;48.810;9.208;2023-04-06T13:32:09;98866.84;;;16.45;27.68
7888;BME280;3989;48.810;9.208;2023-04-06T13:34:36;98825.50;;;16.20;27.51
7888;BME280;3989;48.810;9.208;2023-04-06T13:37:02;98821.59;;;16.16;27.38
7888;BME280;3989;48.810;9.208;2023-04-06T13:39:29;98867.72;;;16.33;27.19
7888;BME280;3989;48.810;9.208;2023-04-06T13:41:56;98687.09;;;15.32;26.83
7888;BME280;3989;48.810;9.208;2023-04-06T13:44:24;98856.03;;;16.01;27.18
7888;BME280;3989;48.810;9.208;2023-04-06T13:46:51;98856.56;;;16.22;27.64
7888;BME280;3989;48.810;9.208;2023-04-06T13:49:18;98803.84;;;16.02;27.20
7888;BME280;3989;48.810;9.208;2023-04-06T13:51:45;98812.22;;;16.32;26.78
7888;BME280;3989;48.810;9.208;2023-04-06T13:54:12;98855.03;;;16.46;26.87
7888;BME280;3989;48.810;9.208;2023-04-06T13:56:38;98842.41;;;16.40;26.87
7888;BME280;3989;48.810;9.208;2023-04-06T13:59:05;98848.38;;;16.49;27.12
7888;BME280;3989;48.810;9.208;2023-04-06T14:01:33;98774.97;;;16.22;27.08
7888;BME280;3989;48.810;9.208;2023-04-06T14:03:59;98716.84;;;15.63;26.71
7888;BME280;3989;48.810;9.208;2023-04-06T14:06:26;98823.69;;;16.07;27.67
7888;BME280;3989;48.810;9.208;2023-04-06T14:08:52;98694.13;;;15.53;26.96
7888;BME280;3989;48.810;9.208;2023-04-06T14:11:19;98828.25;;;16.51;26.42
7888;BME280;3989;48.810;9.208;2023-04-06T14:13:45;98684.19;;;15.53;26.48
7888;BME280;3989;48.810;9.208;2023-04-06T14:16:12;98800.22;;;16.27;26.63
7888;BME280;3989;48.810;9.208;2023-04-06T14:18:40;98849.81;;;16.51;26.87
7888;BME280;3989;48.810;9.208;2023-04-06T14:21:07;98852.44;;;16.71;26.47
7888;BME280;3989;48.810;9.208;2023-04-06T14:23:34;98852.47;;;16.64;25.99
7888;BME280;3989;48.810;9.208;2023-04-06T14:26:02;98838.00;;;16.52;26.78
7888;BME280;3989;48.810;9.208;2023-04-06T14:28:29;98811.13;;;16.77;26.63
7888;BME280;3989;48.810;9.208;2023-04-06T14:30:56;98853.78;;;17.18;26.08
7888;BME280;3989;48.810;9.208;2023-04-06T14:33:23;98844.81;;;17.24;26.17
7888;BME280;3989;48.810;9.208;2023-04-06T14:35:51;98845.09;;;17.41;26.06
7888;BME280;3989;48.810;9.208;2023-04-06T14:38:17;98786.78;;;17.40;25.42
7888;BME280;3989;48.810;9.208;2023-04-06T14:40:44;98840.03;;;17.94;25.44
7888;BME280;3989;48.810;9.208;2023-04-06T14:43:10;98836.97;;;18.08;24.72
7888;BME280;3989;48.810;9.208;2023-04-06T14:45:37;98772.00;;;17.24;25.10
7888;BME280;3989;48.810;9.208;2023-04-06T14:48:04;98804.72;;;17.52;25.74
7888;BME280;3989;48.810;9.208;2023-04-06T14:50:32;98813.31;;;17.43;25.63
7888;BME280;3989;48.810;9.208;2023-04-06T14:53:00;98800.34;;;17.33;25.81
7888;BME280;3989;48.810;9.208;2023-04-06T14:55:27;98759.94;;;17.26;25.81
7888;BME280;3989;48.810;9.208;2023-04-06T14:57:54;98830.84;;;17.58;25.72
7888;BME280;3989;48.810;9.208;2023-04-06T15:00:20;98770.88;;;16.51;25.91
7888;BME280;3989;48.810;9.208;2023-04-06T15:02:47;98828.13;;;16.40;26.72
7888;BME280;3989;48.810;9.208;2023-04-06T15:05:13;98825.00;;;16.43;26.96
7888;BME280;3989;48.810;9.208;2023-04-06T15:07:49;98736.25;;;16.16;26.79
7888;BME280;3989;48.810;9.208;2023-04-06T15:10:27;98792.59;;;17.18;25.96
7888;BME280;3989;48.810;9.208;2023-04-06T15:12:55;98753.94;;;17.00;25.36
7888;BME280;3989;48.810;9.208;2023-04-06T15:15:22;98810.69;;;17.36;25.76
7888;BME280;3989;48.810;9.208;2023-04-06T15:17:48;98815.19;;;18.03;25.40
7888;BME280;3989;48.810;9.208;2023-04-06T15:20:15;98794.56;;;18.27;25.17
7888;BME280;3989;48.810;9.208;2023-04-06T15:22:41;98813.66;;;18.44;24.58
7888;BME280;3989;48.810;9.208;2023-04-06T15:25:08;98812.66;;;18.08;25.01
7888;BME280;3989;48.810;9.208;2023-04-06T15:27:36;98781.63;;;17.99;24.88
7888;BME280;3989;48.810;9.208;2023-04-06T15:30:05;98802.59;;;18.45;24.53
7888;BME280;3989;48.810;9.208;2023-04-06T15:32:37;98817.16;;;18.51;24.43
7888;BME280;3989;48.810;9.208;2023-04-06T15:35:09;98808.91;;;18.09;24.94
7888;BME280;3989;48.810;9.208;2023-04-06T15:37:36;98823.19;;;17.06;25.92
7888;BME280;3989;48.810;9.208;2023-04-06T15:40:03;98820.53;;;16.99;26.50
7888;BME280;3989;48.810;9.208;2023-04-06T15:42:32;98636.19;;;15.57;26.04
7888;BME280;3989;48.810;9.208;2023-04-06T15:45:01;98782.50;;;16.45;26.60
7888;BME280;3989;48.810;9.208;2023-04-06T15:47:28;98790.34;;;16.15;26.36
7888;BME280;3989;48.810;9.208;2023-04-06T15:49:54;98667.66;;;15.43;26.38
7888;BME280;3989;48.810;9.208;2023-04-06T15:52:22;98772.69;;;16.19;26.38
7888;BME280;3989;48.810;9.208;2023-04-06T15:54:48;98829.38;;;16.82;26.24
7888;BME280;3989;48.810;9.208;2023-04-06T15:57:15;98772.56;;;16.45;26.09
7888;BME280;3989;48.810;9.208;2023-04-06T15:59:42;98828.06;;;16.53;26.14
7888;BME280;3989;48.810;9.208;2023-04-06T16:02:10;98827.59;;;16.24;27.00
7888;BME280;3989;48.810;9.208;2023-04-06T16:04:37;98829.41;;;15.47;27.88
7888;BME280;3989;48.810;9.208;2023-04-06T16:07:04;98824.47;;;15.37;28.56
7888;BME280;3989;48.810;9.208;2023-04-06T16:09:30;98806.06;;;15.34;28.55
7888;BME280;3989;48.810;9.208;2023-04-06T16:11:57;98785.81;;;15.12;28.25
7888;BME280;3989;48.810;9.208;2023-04-06T16:14:23;98824.25;;;15.25;28.55
7888;BME280;3989;48.810;9.208;2023-04-06T16:16:50;98829.44;;;15.27;28.79
7888;BME280;3989;48.810;9.208;2023-04-06T16:19:18;98835.22;;;15.11;28.61
7888;BME280;3989;48.810;9.208;2023-04-06T16:21:45;98824.63;;;14.90;28.76
7888;BME280;3989;48.810;9.208;2023-04-06T16:24:11;98830.38;;;14.67;29.16
7888;BME280;3989;48.810;9.208;2023-04-06T16:26:38;98782.34;;;14.25;29.46
7888;BME280;3989;48.810;9.208;2023-04-06T16:29:05;98834.38;;;14.24;29.79
7888;BME280;3989;48.810;9.208;2023-04-06T16:31:33;98836.19;;;14.16;30.05
7888;BME280;3989;48.810;9.208;2023-04-06T16:34:00;98726.63;;;13.32;30.28
7888;BME280;3989;48.810;9.208;2023-04-06T16:36:29;98704.25;;;13.11;30.40
7888;BME280;3989;48.810;9.208;2023-04-06T16:38:58;98835.41;;;13.82;30.77
7888;BME280;3989;48.810;9.208;2023-04-06T16:41:25;98837.97;;;13.62;31.01
7888;BME280;3989;48.810;9.208;2023-04-06T16:43:58;98833.94;;;13.45;31.15
7888;BME280;3989;48.810;9.208;2023-04-06T16:46:30;98809.38;;;13.13;31.82
7888;BME280;3989;48.810;9.208;2023-04-06T16:48:56;98839.97;;;13.26;32.39
7888;BME280;3989;48.810;9.208;2023-04-06T16:51:23;98842.81;;;13.18;32.27
7888;BME280;3989;48.810;9.208;2023-04-06T16:53:52;98833.41;;;13.07;33.22
7888;BME280;3989;48.810;9.208;2023-04-06T16:56:27;98722.81;;;12.22;34.73
7888;BME280;3989;48.810;9.208;2023-04-06T16:58:57;98845.72;;;12.80;34.57
7888;BME280;3989;48.810;9.208;2023-04-06T17:01:27;98765.19;;;12.18;35.58
7888;BME280;3989;48.810;9.208;2023-04-06T17:03:54;98836.16;;;12.50;36.26
7888;BME280;3989;48.810;9.208;2023-04-06T17:06:21;98841.91;;;12.47;36.78
7888;BME280;3989;48.810;9.208;2023-04-06T17:08:48;98843.38;;;12.35;37.12
7888;BME280;3989;48.810;9.208;2023-04-06T17:11:16;98781.69;;;11.86;37.57
7888;BME280;3989;48.810;9.208;2023-04-06T17:13:43;98808.50;;;11.92;37.70
7888;BME280;3989;48.810;9.208;2023-04-06T17:16:10;98840.31;;;12.02;36.64
7888;BME280;3989;48.810;9.208;2023-04-06T17:18:37;98776.53;;;11.55;35.82
7888;BME280;3989;48.810;9.208;2023-04-06T17:21:05;98850.66;;;11.90;35.20
7888;BME280;3989;48.810;9.208;2023-04-06T17:23:32;98846.22;;;11.83;34.78
7888;BME280;3989;48.810;9.208;2023-04-06T17:26:02;98853.16;;;11.77;35.00
7888;BME280;3989;48.810;9.208;2023-04-06T17:28:30;98822.13;;;11.53;34.84
7888;BME280;3989;48.810;9.208;2023-04-06T17:30:57;98851.34;;;11.70;34.57
7888;BME280;3989;48.810;9.208;2023-04-06T17:33:24;98858.94;;;11.66;35.11
7888;BME280;3989;48.810;9.208;2023-04-06T17:35:51;98854.97;;;11.62;34.80
7888;BME280;3989;48.810;9.208;2023-04-06T17:38:17;98855.50;;;11.57;34.85
7888;BME280;3989;48.810;9.208;2023-04-06T17:40:44;98852.19;;;11.55;34.81
7888;BME280;3989;48.810;9.208;2023-04-06T17:43:11;98674.75;;;10.39;34.87
7888;BME280;3989;48.810;9.208;2023-04-06T17:45:38;98858.28;;;11.49;34.89
7888;BME280;3989;48.810;9.208;2023-04-06T17:48:06;98848.84;;;11.39;34.68
7888;BME280;3989;48.810;9.208;2023-04-06T17:50:35;98852.16;;;11.41;34.49
7888;BME280;3989;48.810;9.208;2023-04-06T17:53:03;98858.81;;;11.45;34.56
7888;BME280;3989;48.810;9.208;2023-04-06T17:55:29;98803.84;;;10.98;34.82
7888;BME280;3989;48.810;9.208;2023-04-06T17:57:56;98787.50;;;10.93;34.76
7888;BME280;3989;48.810;9.208;2023-04-06T18:00:22;98849.16;;;11.21;35.20
7888;BME280;3989;48.810;9.208;2023-04-06T18:02:51;98823.53;;;10.97;35.61
7888;BME280;3989;48.810;9.208;2023-04-06T18:05:18;98832.91;;;10.93;36.02
7888;BME280;3989;48.810;9.208;2023-04-06T18:07:44;98865.28;;;11.13;35.94
7888;BME280;3989;48.810;9.208;2023-04-06T18:10:11;98781.75;;;10.44;36.13
7888;BME280;3989;48.810;9.208;2023-04-06T18:12:37;98846.56;;;10.98;36.46
7888;BME280;3989;48.810;9.208;2023-04-06T18:15:05;98887.59;;;11.20;36.80
7888;BME280;3989;48.810;9.208;2023-04-06T18:17:33;98851.78;;;10.92;37.59
7888;BME280;3989;48.810;9.208;2023-04-06T18:20:01;98876.63;;;11.15;37.84
7888;BME280;3989;48.810;9.208;2023-04-06T18:22:28;98882.91;;;11.22;37.82
7888;BME280;3989;48.810;9.208;2023-04-06T18:24:54;98875.34;;;11.11;38.75
7888;BME280;3989;48.810;9.208;2023-04-06T18:27:23;98899.13;;;11.21;38.14
7888;BME280;3989;48.810;9.208;2023-04-06T18:29:50;98790.69;;;10.51;38.24
7888;BME280;3989;48.810;9.208;2023-04-06T18:32:17;98876.56;;;11.00;38.47
7888;BME280;3989;48.810;9.208;2023-04-06T18:34:44;98804.28;;;10.42;38.53
7888;BME280;3989;48.810;9.208;2023-04-06T18:37:12;98869.56;;;10.77;38.94
7888;BME280;3989;48.810;9.208;2023-04-06T18:39:38;98894.75;;;10.82;39.64
7888;BME280;3989;48.810;9.208;2023-04-06T18:42:05;98808.75;;;10.19;39.74
7888;BME280;3989;48.810;9.208;2023-04-06T18:44:31;98894.50;;;10.69;40.01
7888;BME280;3989;48.810;9.208;2023-04-06T18:46:58;98906.81;;;10.70;39.79
7888;BME280;3989;48.810;9.208;2023-04-06T18:49:25;98823.91;;;10.18;39.86
7888;BME280;3989;48.810;9.208;2023-04-06T18:51:51;98918.34;;;10.71;40.03
7888;BME280;3989;48.810;9.208;2023-04-06T18:54:21;98913.63;;;10.73;40.02
7888;BME280;3989;48.810;9.208;2023-04-06T18:56:47;98827.19;;;10.28;39.37
7888;BME280;3989;48.810;9.208;2023-04-06T18:59:14;98918.81;;;10.74;39.41
7888;BME280;3989;48.810;9.208;2023-04-06T19:01:42;98909.31;;;10.72;39.55
7888;BME280;3989;48.810;9.208;2023-04-06T19:04:10;98922.84;;;10.70;39.05
7888;BME280;3989;48.810;9.208;2023-04-06T19:06:37;98920.34;;;10.69;39.73
7888;BME280;3989;48.810;9.208;2023-04-06T19:09:03;98915.53;;;10.64;39.93
7888;BME280;3989;48.810;9.208;2023-04-06T19:11:32;98899.63;;;10.48;39.61
7888;BME280;3989;48.810;9.208;2023-04-06T19:13:58;98897.81;;;10.40;39.46
7888;BME280;3989;48.810;9.208;2023-04-06T19:16:25;98917.47;;;10.47;39.69
7888;BME280;3989;48.810;9.208;2023-04-06T19:18:53;98922.56;;;10.57;40.08
7888;BME280;3989;48.810;9.208;2023-04-06T19:21:21;98929.59;;;10.58;39.98
7888;BME280;3989;48.810;9.208;2023-04-06T19:23:49;98927.91;;;10.57;40.25
7888;BME280;3989;48.810;9.208;2023-04-06T19:26:17;98926.78;;;10.51;40.26
7888;BME280;3989;48.810;9.208;2023-04-06T19:28:46;98938.59;;;10.57;40.66
7888;BME280;3989;48.810;9.208;2023-04-06T19:31:14;98911.34;;;10.39;40.70
7888;BME280;3989;48.810;9.208;2023-04-06T19:33:41;98938.56;;;10.65;40.52
7888;BME280;3989;48.810;9.208;2023-04-06T19:36:09;98946.22;;;10.68;40.61
7888;BME280;3989;48.810;9.208;2023-04-06T19:38:36;98904.66;;;10.43;40.64
7888;BME280;3989;48.810;9.208;2023-04-06T19:41:02;98937.72;;;10.65;40.68
7888;BME280;3989;48.810;9.208;2023-04-06T19:43:29;98886.38;;;10.32;40.55
7888;BME280;3989;48.810;9.208;2023-04-06T19:45:57;98788.94;;;9.74;40.48
7888;BME280;3989;48.810;9.208;2023-04-06T19:48:24;98926.13;;;10.49;40.97
7888;BME280;3989;48.810;9.208;2023-04-06T19:50:52;98927.00;;;10.42;41.42
7888;BME280;3989;48.810;9.208;2023-04-06T19:53:18;98870.69;;;9.90;41.77
7888;BME280;3989;48.810;9.208;2023-04-06T19:55:45;98768.84;;;9.17;41.62
7888;BME280;3989;48.810;9.208;2023-04-06T19:58:12;98925.25;;;10.18;41.71
7888;BME280;3989;48.810;9.208;2023-04-06T20:00:39;98939.91;;;10.30;42.13
7888;BME280;3989;48.810;9.208;2023-04-06T20:03:07;98923.13;;;10.14;42.01
7888;BME280;3989;48.810;9.208;2023-04-06T20:05:35;98924.94;;;10.13;42.38
7888;BME280;3989;48.810;9.208;2023-04-06T20:08:02;98790.59;;;9.36;42.81
7888;BME280;3989;48.810;9.208;2023-04-06T20:10:28;98835.09;;;9.67;43.15
7888;BME280;3989;48.810;9.208;2023-04-06T20:12:55;98949.25;;;10.26;43.53
7888;BME280;3989;48.810;9.208;2023-04-06T20:15:21;98860.63;;;9.61;43.80
7888;BME280;3989;48.810;9.208;2023-04-06T20:17:48;98803.56;;;9.31;44.19
7888;BME280;3989;48.810;9.208;2023-04-06T20:20:16;98947.91;;;10.22;44.69
7888;BME280;3989;48.810;9.208;2023-04-06T20:22:42;98944.41;;;10.22;44.72
7888;BME280;3989;48.810;9.208;2023-04-06T20:25:10;98942.78;;;10.21;45.41
7888;BME280;3989;48.810;9.208;2023-04-06T20:27:37;98699.06;;;8.66;46.04
7888;BME280;3989;48.810;9.208;2023-04-06T20:30:04;98941.44;;;10.17;46.37
7888;BME280;3989;48.810;9.208;2023-04-06T20:32:31;98939.78;;;10.16;47.13
7888;BME280;3989;48.810;9.208;2023-04-06T20:34:57;98911.84;;;9.87;47.79
7888;BME280;3989;48.810;9.208;2023-04-06T20:37:26;98888.88;;;9.78;48.36
7888;BME280;3989;48.810;9.208;2023-04-06T20:39:52;98958.78;;;10.05;48.55
7888;BME280;3989;48.810;9.208;2023-04-06T20:42:19;98937.16;;;9.91;49.13
7888;BME280;3989;48.810;9.208;2023-04-06T20:44:48;98889.78;;;9.55;49.66
7888;BME280;3989;48.810;9.208;2023-04-06T20:47:14;98919.88;;;9.71;49.66
7888;BME280;3989;48.810;9.208;2023-04-06T20:49:41;98942.34;;;9.85;50.48
7888;BME280;3989;48.810;9.208;2023-04-06T20:52:09;98937.34;;;9.82;50.99
7888;BME280;3989;48.810;9.208;2023-04-06T20:54:37;98881.13;;;9.44;51.52
7888;BME280;3989;48.810;9.208;2023-04-06T20:57:15;98809.97;;;8.90;52.24
7888;BME280;3989;48.810;9.208;2023-04-06T20:59:41;98936.22;;;9.68;53.10
7888;BME280;3989;48.810;9.208;2023-04-06T21:02:09;98891.31;;;9.33;53.71
7888;BME280;3989;48.810;9.208;2023-04-06T21:04:36;98912.09;;;9.45;55.02
7888;BME280;3989;48.810;9.208;2023-04-06T21:07:03;98871.84;;;9.16;56.15
7888;BME280;3989;48.810;9.208;2023-04-06T21:09:33;98945.91;;;9.53;57.05
7888;BME280;3989;48.810;9.208;2023-04-06T21:14:52;98708.03;;;8.01;58.68
7888;BME280;3989;48.810;9.208;2023-04-06T21:17:26;98946.03;;;9.43;58.16
7888;BME280;3989;48.810;9.208;2023-04-06T21:20:01;98841.56;;;8.77;60.00
7888;BME280;3989;48.810;9.208;2023-04-06T21:22:30;98738.38;;;7.98;61.70